Time;durP1;ratioP1;P1;durP2;ratioP2;P2;SDS_P1;SDS_P2;PMS_P1;PMS_P2;Temp;Humidity;BMP_temperature;BMP_pressure;BME280_temperature;BME280_humidity;BME280_pressure;Samples;Min_cycle;Max_cycle;Signal;HPM_P1;HPM_P2
2022/01/07 00:02:06;;;;;;;15.50;5.05;;;;;;;7.74;100.00;101251.72;5092442;28;20067;-55
2022/01/07 00:04:34;;;;;;;17.70;6.75;;;;;;;7.58;100.00;101260.53;5094144;28;20047;-53
2022/01/07 00:07:00;;;;;;;13.15;4.32;;;;;;;7.69;100.00;101269.19;5093566;28;20036;-54
2022/01/07 00:09:26;;;;;;;18.42;6.63;;;;;;;7.77;100.00;101257.72;5093428;28;20387;-54
2022/01/07 00:11:51;;;;;;;14.27;5.70;;;;;;;7.66;100.00;101226.94;5093959;28;20043;-52
2022/01/07 00:14:16;;;;;;;15.93;6.07;;;;;;;7.72;100.00;101237.72;5093550;28;20033;-53
2022/01/07 00:16:42;;;;;;;16.03;4.80;;;;;;;7.55;100.00;101239.56;5092672;28;20039;-55
2022/01/07 00:19:08;;;;;;;17.65;5.30;;;;;;;7.63;100.00;101238.72;5093967;28;20170;-53
2022/01/07 00:21:33;;;;;;;16.07;4.73;;;;;;;7.13;100.00;101241.34;5100512;28;20052;-49
2022/01/07 00:23:59;;;;;;;12.77;5.27;;;;;;;7.18;100.00;101222.22;5102675;28;20039;-52
2022/01/07 00:26:24;;;;;;;17.87;6.37;;;;;;;7.08;100.00;101245.47;5100060;28;20044;-51
2022/01/07 00:28:50;;;;;;;18.87;6.70;;;;;;;7.15;100.00;101235.84;5097856;28;20040;-51
2022/01/07 00:31:15;;;;;;;18.10;6.18;;;;;;;7.00;100.00;101241.81;5096782;28;20479;-51
2022/01/07 00:33:41;;;;;;;12.38;5.25;;;;;;;6.84;100.00;101209.84;5097485;28;20036;-53
2022/01/07 00:36:06;;;;;;;18.90;5.60;;;;;;;7.12;100.00;101206.91;5096031;28;20039;-51
2022/01/07 00:38:33;;;;;;;12.80;5.03;;;;;;;6.60;100.00;101212.25;5097790;28;20079;-54
2022/01/07 00:40:58;;;;;;;14.85;6.18;;;;;;;6.87;100.00;101185.59;5096493;28;20390;-50
2022/01/07 00:43:24;;;;;;;13.85;5.90;;;;;;;6.88;100.00;101187.25;5096329;28;20056;-53
2022/01/07 00:45:49;;;;;;;16.58;5.47;;;;;;;6.63;100.00;101187.16;5097821;28;20032;-55
2022/01/07 00:48:15;;;;;;;12.00;5.07;;;;;;;6.81;100.00;101187.09;5080172;28;20044;-49
2022/01/07 00:50:41;;;;;;;19.83;6.03;;;;;;;6.55;100.00;101181.84;5097714;28;20335;-52
2022/01/07 00:53:06;;;;;;;16.65;6.18;;;;;;;6.78;100.00;101173.28;5095780;28;20063;-51
2022/01/07 00:55:32;;;;;;;13.37;6.63;;;;;;;7.03;100.00;101167.00;5096086;28;20048;-49
2022/01/07 00:57:57;;;;;;;9.15;5.13;;;;;;;6.64;100.00;101156.94;5097784;28;20072;-54
2022/01/07 01:00:25;;;;;;;13.53;5.13;;;;;;;6.78;100.00;101157.31;5098206;28;20168;-51
2022/01/07 01:02:51;;;;;;;13.27;4.97;;;;;;;6.87;100.00;101166.97;5096839;28;20284;-54
2022/01/07 01:05:18;;;;;;;17.42;6.72;;;;;;;6.91;100.00;101155.00;5096560;28;20055;-50
2022/01/07 01:07:45;;;;;;;9.50;5.10;;;;;;;6.94;100.00;101149.38;5099066;28;20036;-50
2022/01/07 01:10:14;;;;;;;13.07;5.10;;;;;;;6.94;100.00;101160.03;5097122;28;20036;-52
2022/01/07 01:12:43;;;;;;;17.10;6.60;;;;;;;6.80;100.00;101145.50;5078664;28;20048;-50
2022/01/07 01:15:11;;;;;;;12.52;5.65;;;;;;;6.92;100.00;101129.25;5096270;28;20044;-53
2022/01/07 01:17:37;;;;;;;18.42;5.30;;;;;;;7.06;100.00;101130.44;5062165;28;20135;-49
2022/01/07 01:20:06;;;;;;;15.52;5.38;;;;;;;7.14;100.00;101133.94;5096675;28;20067;-51
2022/01/07 01:22:31;;;;;;;21.50;7.18;;;;;;;7.31;100.00;101126.78;5096060;28;20130;-53
2022/01/07 01:24:57;;;;;;;18.67;5.88;;;;;;;7.06;100.00;101120.66;5095544;28;20072;-52
2022/01/07 01:27:22;;;;;;;13.33;4.90;;;;;;;7.02;100.00;101114.81;5078278;28;20044;-52
2022/01/07 01:29:48;;;;;;;15.07;5.37;;;;;;;7.23;100.00;101123.28;5096276;28;20040;-50
2022/01/07 01:32:16;;;;;;;16.97;6.17;;;;;;;7.08;100.00;101104.50;5094175;28;20036;-52
2022/01/07 01:34:42;;;;;;;12.38;5.35;;;;;;;7.21;100.00;101119.97;5096189;28;20043;-50
2022/01/07 01:37:07;;;;;;;17.63;5.50;;;;;;;7.07;100.00;101108.16;5094985;28;20040;-51
2022/01/07 01:39:33;;;;;;;13.37;4.50;;;;;;;7.13;100.00;101113.66;5096602;28;20036;-49
2022/01/07 01:41:58;;;;;;;11.35;4.32;;;;;;;6.89;100.00;101117.97;5096054;28;20044;-52
2022/01/07 01:44:24;;;;;;;9.23;4.55;;;;;;;6.91;100.00;101088.53;5079632;28;20047;-52
2022/01/07 01:46:49;;;;;;;14.32;4.35;;;;;;;6.70;100.00;101099.66;5097195;28;20484;-51
2022/01/07 01:49:15;;;;;;;17.07;4.87;;;;;;;6.86;100.00;101096.19;5078079;28;20125;-50
2022/01/07 01:51:41;;;;;;;19.30;4.55;;;;;;;7.02;100.00;101093.53;5096001;28;20276;-51
2022/01/07 01:54:06;;;;;;;17.85;5.82;;;;;;;6.89;100.00;101101.16;5094988;28;20040;-52
2022/01/07 01:56:33;;;;;;;8.70;4.00;;;;;;;6.72;100.00;101114.44;5096061;28;20448;-50
2022/01/07 01:58:59;;;;;;;14.10;4.75;;;;;;;6.58;100.00;101120.38;5096626;28;20044;-52
2022/01/07 02:01:24;;;;;;;16.90;5.85;;;;;;;6.78;100.00;101096.19;5095896;28;20040;-56
2022/01/07 02:03:50;;;;;;;16.65;5.38;;;;;;;6.56;100.00;101098.47;5078467;28;20040;-51
2022/01/07 02:06:15;;;;;;;13.15;5.15;;;;;;;6.83;100.00;101081.41;5095881;28;20043;-54
2022/01/07 02:08:41;;;;;;;15.65;5.70;;;;;;;6.88;100.00;101099.50;5077906;28;20380;-54
2022/01/07 02:11:07;;;;;;;27.15;6.90;;;;;;;6.80;100.00;101089.69;5094509;28;20455;-53
2022/01/07 02:13:33;;;;;;;16.98;6.28;;;;;;;6.64;100.00;101087.84;5095771;28;20375;-49
2022/01/07 02:15:58;;;;;;;14.03;6.10;;;;;;;6.63;100.00;101070.22;5094952;28;20544;-51
2022/01/07 02:18:24;;;;;;;19.90;6.78;;;;;;;6.76;100.00;101068.94;5094279;28;20044;-53
2022/01/07 02:20:49;;;;;;;26.60;6.13;;;;;;;6.80;100.00;101081.72;5095538;28;20043;-52
2022/01/07 02:23:19;;;;;;;15.30;5.93;;;;;;;6.81;100.00;101053.31;5096476;28;20048;-51
2022/01/07 02:25:45;;;;;;;12.43;5.45;;;;;;;6.63;100.00;101080.03;5094176;28;20338;-51
2022/01/07 02:28:12;;;;;;;25.00;5.53;;;;;;;6.68;100.00;101062.59;5095496;28;20036;-52
2022/01/07 02:30:37;;;;;;;;;;;;;;;6.56;100.00;101042.66;5096026;28;20269;-48
2022/01/07 02:33:03;;;;;;;24.43;7.43;;;;;;;6.59;100.00;101044.97;5096095;28;19916;-50
2022/01/07 02:35:33;;;;;;;18.17;6.57;;;;;;;6.63;100.00;101038.34;5095657;28;20040;-53
2022/01/07 02:37:59;;;;;;;16.48;6.93;;;;;;;6.57;100.00;101025.72;5095402;28;20483;-54
2022/01/07 02:40:26;;;;;;;27.05;8.20;;;;;;;6.74;100.00;101030.06;5095396;28;20044;-55
2022/01/07 02:42:52;;;;;;;25.60;6.57;;;;;;;6.66;100.00;101038.00;5093506;28;20052;-51
2022/01/07 02:45:18;;;;;;;21.55;7.65;;;;;;;6.73;100.00;101028.41;5094645;28;20384;-55
2022/01/07 02:47:59;;;;;;;10.65;5.32;;;;;;;6.76;100.00;101021.09;5094453;28;20036;-52
2022/01/07 02:50:26;;;;;;;12.15;4.88;;;;;;;6.84;100.00;101037.03;5095881;28;20048;-50
2022/01/07 02:52:52;;;;;;;17.35;5.80;;;;;;;6.78;100.00;101035.03;5094866;28;20027;-51
2022/01/07 02:55:19;;;;;;;18.17;5.82;;;;;;;6.93;100.00;101006.81;5093628;28;20044;-50
2022/01/07 02:57:44;;;;;;;19.08;6.00;;;;;;;7.00;100.00;101013.09;5093524;28;20102;-50
2022/01/07 03:00:11;;;;;;;17.67;5.83;;;;;;;6.94;100.00;101016.44;5093595;28;20492;-51
2022/01/07 03:02:37;;;;;;;;;;;;;;;6.86;100.00;101008.44;5098632;28;20290;-53
2022/01/07 03:05:02;;;;;;;15.77;6.13;;;;;;;6.68;100.00;101001.47;5097804;28;19918;-51
2022/01/07 03:07:29;;;;;;;14.52;6.00;;;;;;;6.78;100.00;100995.16;5094636;28;20040;-53
2022/01/07 03:09:55;;;;;;;15.82;5.43;;;;;;;6.77;100.00;101001.47;5094778;28;20073;-53
2022/01/07 03:12:20;;;;;;;14.70;6.07;;;;;;;6.63;100.00;100995.00;5093067;28;20040;-51
2022/01/07 03:14:48;;;;;;;15.77;7.53;;;;;;;6.47;100.00;100986.00;5094876;28;20044;-51
2022/01/07 03:17:13;;;;;;;18.52;8.45;;;;;;;6.82;100.00;100991.16;5093614;28;20507;-50
2022/01/07 03:19:39;;;;;;;19.95;8.43;;;;;;;6.57;100.00;101005.31;5094901;28;20044;-53
2022/01/07 03:22:04;;;;;;;15.77;7.90;;;;;;;6.68;100.00;100979.38;5093098;28;20475;-51
2022/01/07 03:24:30;;;;;;;15.47;7.77;;;;;;;6.52;100.00;100982.88;5094923;28;20040;-50
2022/01/07 03:26:55;;;;;;;19.60;7.97;;;;;;;6.67;100.00;100988.34;5094363;28;20044;-49
2022/01/07 03:29:21;;;;;;;17.77;6.83;;;;;;;6.60;100.00;100996.16;5093053;28;20043;-51
2022/01/07 03:31:46;;;;;;;17.53;7.50;;;;;;;6.26;100.00;100995.28;5094191;28;20043;-51
2022/01/07 03:34:12;;;;;;;22.63;8.33;;;;;;;6.16;100.00;100982.13;5092742;28;20115;-53
2022/01/07 03:36:37;;;;;;;19.27;7.63;;;;;;;6.38;100.00;100990.47;5094646;28;20036;-49
2022/01/07 03:39:03;;;;;;;17.30;9.77;;;;;;;6.48;100.00;100970.91;5076034;28;20032;-51
2022/01/07 03:41:29;;;;;;;21.08;9.02;;;;;;;6.19;100.00;100982.81;5094314;28;20036;-53
2022/01/07 03:43:55;;;;;;;19.00;9.00;;;;;;;6.35;100.00;100972.22;5094329;28;20078;-50
2022/01/07 03:46:20;;;;;;;21.73;6.90;;;;;;;6.28;100.00;100976.53;5092628;28;20064;-52
2022/01/07 03:48:46;;;;;;;16.17;7.90;;;;;;;6.01;100.00;100975.81;5092813;28;20422;-50
2022/01/07 03:51:11;;;;;;;20.57;9.37;;;;;;;6.09;100.00;100977.63;5092728;28;20039;-51
2022/01/07 03:53:37;;;;;;;19.33;9.50;;;;;;;6.14;100.00;100970.84;5093694;28;20032;-50
2022/01/07 03:56:03;;;;;;;14.77;7.90;;;;;;;5.81;100.00;100978.72;5093589;28;20032;-54
2022/01/07 03:58:29;;;;;;;19.35;8.95;;;;;;;5.92;100.00;100960.81;5075943;28;20035;-50
2022/01/07 04:00:54;;;;;;;52.33;9.83;;;;;;;6.21;100.00;100960.41;5092622;28;20126;-52
2022/01/07 04:03:20;;;;;;;18.23;7.53;;;;;;;6.33;100.00;100963.59;5075818;28;20040;-50
2022/01/07 04:05:46;;;;;;;17.58;9.80;;;;;;;6.23;100.00;100952.28;5092237;28;20028;-52
2022/01/07 04:08:12;;;;;;;31.25;11.30;;;;;;;6.40;100.00;100959.28;5093877;28;20152;-54
2022/01/07 04:10:39;;;;;;;17.50;9.35;;;;;;;6.08;100.00;100946.78;5093949;28;20040;-55
2022/01/07 04:13:05;;;;;;;18.40;9.75;;;;;;;6.10;100.00;100958.06;5093928;28;20134;-49
2022/01/07 04:15:31;;;;;;;16.27;8.20;;;;;;;6.31;100.00;100949.63;5093679;28;20067;-53
2022/01/07 04:17:57;;;;;;;20.55;9.63;;;;;;;6.11;100.00;100936.66;5093696;28;20028;-53
2022/01/07 04:20:25;;;;;;;17.83;8.43;;;;;;;6.18;100.00;100939.50;5094429;28;20067;-51
2022/01/07 04:22:52;;;;;;;30.65;9.35;;;;;;;6.32;100.00;100935.38;5093484;28;20047;-51
2022/01/07 04:25:18;;;;;;;21.85;9.82;;;;;;;6.15;100.00;100945.97;5094076;28;20043;-53
2022/01/07 04:28:06;;;;;;;19.27;9.35;;;;;;;6.24;100.00;100948.66;5093606;28;20033;-50
2022/01/07 04:30:34;;;;;;;19.70;10.93;;;;;;;6.01;100.00;100943.97;5092287;28;20048;-53
2022/01/07 04:33:02;;;;;;;26.88;11.02;;;;;;;6.21;100.00;100925.03;5093172;28;20028;-54
2022/01/07 04:35:28;;;;;;;23.35;11.10;;;;;;;6.32;100.00;100925.56;5092813;28;20037;-51
2022/01/07 04:37:54;;;;;;;19.33;10.40;;;;;;;6.29;100.00;100925.88;5092256;28;20036;-54
2022/01/07 04:40:20;;;;;;;25.77;11.65;;;;;;;6.24;100.00;100943.34;5092239;28;20771;-54
2022/01/07 04:42:47;;;;;;;24.90;9.95;;;;;;;6.24;100.00;100916.78;5093298;28;20047;-51
2022/01/07 04:45:13;;;;;;;20.90;11.50;;;;;;;6.32;100.00;100919.44;5093209;28;20115;-55
2022/01/07 04:47:40;;;;;;;25.63;12.48;;;;;;;6.58;100.00;100939.69;5074964;28;20052;-53
2022/01/07 04:50:09;;;;;;;36.15;17.42;;;;;;;6.56;100.00;100909.78;5092363;28;20463;-53
2022/01/07 04:52:35;;;;;;;31.08;15.57;;;;;;;6.58;100.00;100915.75;5093047;28;20043;-49
2022/01/07 04:55:01;;;;;;;29.63;13.80;;;;;;;6.64;100.00;100904.47;5093330;28;20060;-55
2022/01/07 04:57:26;;;;;;;42.13;17.77;;;;;;;6.96;100.00;100901.91;5094253;28;20036;-50
2022/01/07 04:59:52;;;;;;;32.03;15.60;;;;;;;6.94;100.00;100911.91;5093473;28;20699;-53
2022/01/07 05:02:20;;;;;;;31.07;17.03;;;;;;;6.87;100.00;100901.94;5092939;28;20032;-54
2022/01/07 05:04:47;;;;;;;37.03;18.02;;;;;;;6.86;100.00;100915.41;5092347;28;20097;-48
2022/01/07 05:07:13;;;;;;;;;;;;;;;7.22;100.00;100903.50;5094931;28;20136;-50
2022/01/07 05:09:38;;;;;;;32.47;16.30;;;;;;;7.26;100.00;100894.19;5097244;28;20003;-52
2022/01/07 05:12:04;;;;;;;30.47;15.30;;;;;;;7.14;100.00;100899.03;5096992;28;20329;-53
2022/01/07 05:14:31;;;;;;;38.25;18.30;;;;;;;7.22;100.00;100899.03;5062142;28;20072;-51
2022/01/07 05:16:57;;;;;;;41.08;17.27;;;;;;;7.27;100.00;100891.34;5097453;28;20075;-54
2022/01/07 05:19:23;;;;;;;29.73;15.48;;;;;;;7.14;100.00;100897.22;5095604;28;20467;-53
2022/01/07 05:21:48;;;;;;;35.30;16.50;;;;;;;7.21;100.00;100901.84;5078216;28;20499;-55
2022/01/07 05:24:14;;;;;;;35.30;17.57;;;;;;;7.45;100.00;100892.94;5095576;28;20036;-54
2022/01/07 05:26:40;;;;;;;39.88;18.83;;;;;;;7.31;100.00;100923.78;5096616;28;20297;-54
2022/01/07 05:29:05;;;;;;;40.10;19.97;;;;;;;7.38;100.00;100886.66;5096360;28;20044;-57
2022/01/07 05:31:31;;;;;;;39.70;19.42;;;;;;;7.69;100.00;100893.84;5095361;28;20039;-55
2022/01/07 05:33:56;;;;;;;38.43;18.40;;;;;;;7.55;100.00;100888.22;5095234;28;20051;-54
2022/01/07 05:36:22;;;;;;;29.73;17.00;;;;;;;7.62;100.00;100879.56;5096907;28;20032;-55
2022/01/07 05:38:48;;;;;;;32.75;15.73;;;;;;;7.78;100.00;100884.78;5061738;28;20040;-52
2022/01/07 05:41:14;;;;;;;42.90;20.15;;;;;;;7.66;100.00;100886.19;5096601;28;20067;-53
2022/01/07 05:43:40;;;;;;;29.98;17.00;;;;;;;7.87;100.00;100891.72;5098293;28;20168;-55
2022/01/07 05:46:08;;;;;;;31.73;17.88;;;;;;;7.95;100.00;100890.00;5097900;28;20036;-50
2022/01/07 05:48:33;;;;;;;35.15;18.38;;;;;;;7.77;100.00;100898.28;5095633;28;20040;-52
2022/01/07 05:50:59;;;;;;;33.88;17.08;;;;;;;7.88;100.00;100888.06;5094789;28;20115;-54
2022/01/07 05:53:25;;;;;;;33.33;18.07;;;;;;;7.72;100.00;100893.47;5096348;28;20544;-56
2022/01/07 05:55:50;;;;;;;38.22;19.17;;;;;;;7.79;100.00;100882.97;5094590;28;20047;-52
2022/01/07 05:58:16;;;;;;;32.53;17.33;;;;;;;8.32;100.00;100865.25;5094812;28;20047;-53
2022/01/07 06:00:41;;;;;;;39.43;18.57;;;;;;;7.89;100.00;100889.72;5095726;28;20028;-53
2022/01/07 06:03:07;;;;;;;36.47;19.97;;;;;;;7.88;100.00;100877.41;5094857;28;20360;-55
2022/01/07 06:05:33;;;;;;;38.25;17.42;;;;;;;7.86;100.00;100867.94;5096311;28;20035;-53
2022/01/07 06:07:58;;;;;;;19.55;12.07;;;;;;;8.19;100.00;100881.03;5094515;28;20036;-54
2022/01/07 06:10:24;;;;;;;36.03;14.77;;;;;;;8.43;100.00;100873.84;5096053;28;20499;-52
2022/01/07 06:12:49;;;;;;;29.48;15.93;;;;;;;8.33;100.00;100879.41;5094320;28;20089;-50
2022/01/07 06:15:15;;;;;;;34.23;16.83;;;;;;;8.26;100.00;100883.78;5095478;28;20399;-52
2022/01/07 06:17:41;;;;;;;31.20;16.80;;;;;;;8.17;100.00;100877.69;5095503;28;20040;-49
2022/01/07 06:20:07;;;;;;;39.88;18.33;;;;;;;8.00;100.00;100890.31;5095059;28;20082;-51
2022/01/07 06:22:34;;;;;;;36.17;16.10;;;;;;;8.19;100.00;100889.03;5095542;28;20132;-53
2022/01/07 06:25:00;;;;;;;;;;;;;;;8.29;100.00;100894.09;5094799;28;20047;-52
2022/01/07 06:27:25;;;;;;;31.90;15.50;;;;;;;8.43;100.00;100892.50;5094949;28;19916;-55
2022/01/07 06:29:51;;;;;;;27.57;14.83;;;;;;;8.31;100.00;100903.56;5095511;28;20395;-53
2022/01/07 06:32:16;;;;;;;29.17;15.80;;;;;;;8.37;100.00;100899.38;5094067;28;20040;-52
2022/01/07 06:34:42;;;;;;;37.13;19.27;;;;;;;8.02;100.00;100882.97;5095147;28;20538;-52
2022/01/07 06:37:07;;;;;;;44.13;18.63;;;;;;;8.26;100.00;100895.28;5095304;28;20047;-54
2022/01/07 06:39:34;;;;;;;48.13;18.70;;;;;;;8.13;100.00;100887.03;5077599;28;20535;-55
2022/01/07 06:42:00;;;;;;;37.67;18.58;;;;;;;8.25;100.00;100890.13;5096599;28;20047;-51
2022/01/07 06:44:26;;;;;;;32.97;18.05;;;;;;;8.46;100.00;100897.47;5094000;28;20040;-53
2022/01/07 06:46:52;;;;;;;39.78;17.92;;;;;;;8.68;100.00;100898.44;5094718;28;20386;-53
2022/01/07 06:49:18;;;;;;;42.35;20.13;;;;;;;8.58;100.00;100893.38;5060477;28;20044;-54
2022/01/07 06:51:44;;;;;;;35.50;17.77;;;;;;;8.52;100.00;100891.44;5094434;28;20384;-50
2022/01/07 06:54:11;;;;;;;34.83;17.52;;;;;;;8.44;100.00;100902.97;5094009;28;20257;-52
2022/01/07 06:56:41;;;;;;;32.00;17.90;;;;;;;8.29;100.00;100888.75;5094970;28;20042;-48
2022/01/07 06:59:07;;;;;;;36.08;18.05;;;;;;;8.26;100.00;100881.13;5094261;28;20127;-52
2022/01/07 07:01:33;;;;;;;34.95;17.00;;;;;;;8.46;100.00;100881.47;5095495;28;20036;-53
2022/01/07 07:03:59;;;;;;;33.72;19.35;;;;;;;8.25;100.00;100887.47;5061179;28;20024;-50
2022/01/07 07:06:24;;;;;;;30.38;17.85;;;;;;;8.44;100.00;100889.63;5097467;28;20514;-52
2022/01/07 07:08:50;;;;;;;30.83;17.03;;;;;;;8.31;100.00;100892.09;5097350;28;20117;-57
2022/01/07 07:11:16;;;;;;;40.23;19.13;;;;;;;8.22;100.00;100893.16;5095438;28;20040;-51
2022/01/07 07:13:41;;;;;;;30.17;17.77;;;;;;;8.53;100.00;100887.75;5093836;28;20039;-50
2022/01/07 07:16:06;;;;;;;37.13;18.73;;;;;;;8.30;100.00;100901.06;5093128;28;20040;-51
2022/01/07 07:18:32;;;;;;;43.30;21.27;;;;;;;8.21;100.00;100892.34;5093007;28;20514;-56
2022/01/07 07:20:58;;;;;;;39.23;19.83;;;;;;;8.38;100.00;100871.72;5093076;28;20492;-51
2022/01/07 07:23:24;;;;;;;47.42;19.27;;;;;;;8.39;100.00;100891.16;5093011;28;20050;-51
2022/01/07 07:25:51;;;;;;;36.80;19.17;;;;;;;8.45;100.00;100887.81;5094289;28;20067;-53
2022/01/07 07:28:18;;;;;;;44.38;21.13;;;;;;;8.79;100.00;100886.50;5094671;28;20164;-52
2022/01/07 07:30:43;;;;;;;43.70;21.60;;;;;;;8.55;100.00;100890.25;5092492;28;20028;-54
2022/01/07 07:38:37;;;;;;;44.00;22.20;;;;;;;8.64;100.00;100885.66;5094277;28;20438;-54
2022/01/07 07:41:03;;;;;;;40.83;20.02;;;;;;;8.35;100.00;100892.53;5093805;28;20536;-55
2022/01/07 07:43:29;;;;;;;39.53;21.02;;;;;;;8.64;100.00;100890.97;5093698;28;20349;-51
2022/01/07 07:45:54;;;;;;;38.83;19.70;;;;;;;8.52;100.00;100878.09;5092494;28;20050;-52
2022/01/07 07:48:20;;;;;;;42.57;20.60;;;;;;;8.71;100.00;100882.06;5094347;28;20478;-53
2022/01/07 07:50:46;;;;;;;38.67;18.77;;;;;;;8.69;100.00;100878.78;5092706;28;20484;-54
2022/01/07 07:53:11;;;;;;;40.67;21.23;;;;;;;8.47;100.00;100872.47;5093549;28;20032;-55
2022/01/07 07:55:37;;;;;;;41.78;22.67;;;;;;;8.53;100.00;100876.25;5075818;28;20456;-52
2022/01/07 07:58:03;;;;;;;41.63;21.98;;;;;;;8.78;100.00;100870.72;5093449;28;20081;-55
2022/01/07 08:00:28;;;;;;;44.23;21.93;;;;;;;8.79;100.00;100869.69;5093520;28;20040;-53
2022/01/07 08:02:54;;;;;;;50.03;21.20;;;;;;;8.74;100.00;100879.03;5094117;28;20268;-53
2022/01/07 08:05:19;;;;;;;44.70;21.20;;;;;;;8.96;100.00;100873.81;5093130;28;20658;-52
2022/01/07 08:07:45;;;;;;;36.67;17.33;;;;;;;9.05;100.00;100887.91;5092370;28;20501;-55
2022/01/07 08:10:10;;;;;;;36.55;18.02;;;;;;;8.82;100.00;100883.47;5076351;28;20039;-55
2022/01/07 08:18:00;;;;;;;39.13;18.23;;;;;;;8.98;100.00;100874.47;5093447;28;20028;-54
2022/01/07 08:20:26;;;;;;;32.75;18.15;;;;;;;9.12;100.00;100880.00;5075588;28;20035;-54
2022/01/07 08:22:52;;;;;;;35.28;19.63;;;;;;;8.68;100.00;100887.78;5091405;28;20143;-52
2022/01/07 08:25:17;;;;;;;34.75;17.60;;;;;;;8.84;100.00;100870.78;5092211;28;20138;-54
2022/01/07 08:27:43;;;;;;;35.13;19.63;;;;;;;8.71;100.00;100870.59;5093363;28;20396;-54
2022/01/07 08:30:14;;;;;;;45.47;20.00;;;;;;;8.97;100.00;100864.81;5093354;28;20036;-53
2022/01/07 08:35:25;;;;;;;32.85;17.02;;;;;;;9.03;100.00;100866.75;5096674;28;20044;-54
2022/01/07 08:37:50;;;;;;;31.15;16.90;;;;;;;9.21;100.00;100868.19;5104027;28;20511;-50
2022/01/07 08:40:16;;;;;;;34.53;16.63;;;;;;;9.12;100.00;100866.66;5076710;28;20076;-50
2022/01/07 08:42:41;;;;;;;30.57;15.37;;;;;;;8.71;100.00;100871.41;5096185;28;20040;-54
2022/01/07 08:45:07;;;;;;;34.80;14.90;;;;;;;8.72;100.00;100873.06;5096151;28;20745;-54
2022/01/07 08:47:33;;;;;;;30.42;15.75;;;;;;;8.70;100.00;100893.75;5097287;28;20036;-53
2022/01/07 08:49:58;;;;;;;27.73;14.47;;;;;;;8.85;100.00;100869.78;5097374;28;20036;-50
2022/01/07 08:52:24;;;;;;;28.55;15.27;;;;;;;8.81;100.00;100878.34;5079052;28;20160;-53
2022/01/07 08:54:52;;;;;;;25.23;13.57;;;;;;;9.04;100.00;100879.09;5096081;28;20391;-53
2022/01/07 08:57:21;;;;;;;25.85;14.32;;;;;;;9.24;100.00;100877.69;5097575;28;20024;-53
2022/01/07 08:59:48;;;;;;;30.90;14.88;;;;;;;8.89;100.00;100880.91;5096073;28;20036;-53
2022/01/07 09:02:14;;;;;;;32.05;15.65;;;;;;;8.93;100.00;100878.72;5097988;28;20043;-50
2022/01/07 09:04:39;;;;;;;29.05;15.07;;;;;;;8.66;100.00;100873.81;5097376;28;20514;-54
2022/01/07 09:07:05;;;;;;;26.20;13.82;;;;;;;8.79;100.00;100861.69;5097454;28;20036;-52
2022/01/07 09:09:30;;;;;;;37.33;14.70;;;;;;;8.86;100.00;100860.75;5097232;28;20476;-52
2022/01/07 09:11:56;;;;;;;28.63;15.83;;;;;;;8.75;100.00;100861.22;5095475;28;20498;-51
2022/01/07 09:14:22;;;;;;;31.70;16.13;;;;;;;8.84;100.00;100864.63;5097395;28;20028;-53
2022/01/07 09:16:47;;;;;;;29.60;14.48;;;;;;;8.83;100.00;100855.78;5096605;28;20072;-54
2022/01/07 09:19:13;;;;;;;33.20;14.43;;;;;;;8.65;100.00;100860.66;5095355;28;20032;-54
2022/01/07 09:21:38;;;;;;;34.13;15.17;;;;;;;8.89;100.00;100859.56;5096510;28;20072;-53
2022/01/07 09:24:04;;;;;;;32.80;15.53;;;;;;;8.94;100.00;100857.16;5078527;28;20269;-52
2022/01/07 09:26:30;;;;;;;25.65;13.73;;;;;;;9.21;100.00;100857.53;5096411;28;20480;-52
2022/01/07 09:28:55;;;;;;;30.47;12.43;;;;;;;9.06;100.00;100867.41;5096249;28;20036;-53
2022/01/07 09:31:20;;;;;;;36.47;13.67;;;;;;;9.22;100.00;100861.03;5095276;28;20361;-52
2022/01/07 09:33:46;;;;;;;25.97;12.30;;;;;;;9.77;100.00;100872.16;5095216;28;20047;-55
2022/01/07 09:36:12;;;;;;;31.00;13.60;;;;;;;9.82;100.00;100877.75;5096771;28;20048;-53
2022/01/07 09:38:37;;;;;;;25.17;13.82;;;;;;;9.72;100.00;100863.88;5095484;28;20256;-55
2022/01/07 09:41:05;;;;;;;31.27;12.87;;;;;;;10.24;100.00;100869.91;5096809;28;20503;-55
2022/01/07 09:43:31;;;;;;;30.23;11.48;;;;;;;10.87;100.00;100868.38;5079081;28;20040;-51
2022/01/07 09:45:56;;;;;;;19.70;11.27;;;;;;;11.16;100.00;100869.13;5096901;28;20480;-53
2022/01/07 09:48:22;;;;;;;19.20;9.83;;;;;;;11.53;100.00;100871.53;5095296;28;20051;-54
2022/01/07 09:50:47;;;;;;;16.58;8.52;;;;;;;11.55;100.00;100864.97;5078832;28;20122;-53
2022/01/07 09:53:15;;;;;;;21.95;8.27;;;;;;;10.92;100.00;100867.75;5095668;28;20039;-51
2022/01/07 09:55:44;;;;;;;14.95;7.78;;;;;;;10.82;100.00;100874.28;5097308;28;20032;-52
2022/01/07 09:58:13;;;;;;;21.52;9.27;;;;;;;10.35;100.00;100865.88;5096131;28;20088;-51
2022/01/07 10:00:43;;;;;;;16.38;8.20;;;;;;;10.38;100.00;100862.00;5095992;28;20055;-50
2022/01/07 10:03:17;;;;;;;16.63;8.20;;;;;;;10.36;100.00;100856.84;5085309;28;20047;-51
2022/01/07 10:05:45;;;;;;;17.13;8.10;;;;;;;10.06;100.00;100851.66;5101310;28;20043;-53
2022/01/07 10:08:25;;;;;;;16.00;8.60;;;;;;;10.03;100.00;100862.75;5095499;28;20059;-54
2022/01/07 10:11:18;;;;;;;17.27;8.23;;;;;;;9.87;100.00;100851.28;5095826;28;20105;-53
2022/01/07 10:13:49;;;;;;;19.48;9.05;;;;;;;10.08;100.00;100852.31;5094633;28;20040;-52
2022/01/07 10:16:16;;;;;;;23.15;9.82;;;;;;;10.52;100.00;100846.94;5078212;28;20036;-53
2022/01/07 10:18:43;;;;;;;21.45;8.95;;;;;;;10.38;100.00;100865.53;5095758;28;20056;-52
2022/01/07 10:21:09;;;;;;;;;;;;;;;10.42;100.00;100861.47;5095952;28;20107;-52
2022/01/07 10:23:35;;;;;;;16.05;7.43;;;;;;;11.30;100.00;100840.56;5095785;28;19920;-54
2022/01/07 10:26:01;;;;;;;12.90;7.22;;;;;;;11.80;100.00;100844.81;5095572;28;20036;-54
2022/01/07 10:28:33;;;;;;;15.13;6.75;;;;;;;11.97;100.00;100853.28;5095577;28;20044;-55
2022/01/07 10:31:02;;;;;;;13.77;5.43;;;;;;;11.93;100.00;100841.34;5094671;28;20040;-55
2022/01/07 10:33:36;;;;;;;18.60;6.72;;;;;;;11.73;100.00;100844.78;5093998;28;20039;-53
2022/01/07 10:36:08;;;;;;;13.13;5.95;;;;;;;11.22;100.00;100838.88;5095386;28;20044;-53
2022/01/07 10:38:36;;;;;;;13.73;6.57;;;;;;;10.98;100.00;100829.53;5095569;28;20093;-54
2022/01/07 10:41:02;;;;;;;15.32;6.00;;;;;;;10.94;100.00;100826.41;5095876;28;20039;-53
2022/01/07 10:43:36;;;;;;;13.35;6.13;;;;;;;10.96;100.00;100824.34;5077323;28;20044;-55
2022/01/07 10:46:20;;;;;;;18.13;6.10;;;;;;;10.72;100.00;100809.59;5077575;28;20051;-52
2022/01/07 10:48:54;;;;;;;12.70;5.55;;;;;;;10.83;100.00;100818.91;5094813;28;20043;-52
2022/01/07 10:51:24;;;;;;;14.55;5.53;;;;;;;10.90;100.00;100825.16;5095293;28;20043;-54
2022/01/07 10:53:56;;;;;;;17.02;4.97;;;;;;;11.48;100.00;100832.81;5095418;28;20070;-52
2022/01/07 10:56:32;;;;;;;14.23;5.00;;;;;;;11.12;100.00;100844.59;5094867;28;20044;-52
2022/01/07 10:59:08;;;;;;;15.98;4.70;;;;;;;10.60;100.00;100830.72;5094932;28;20044;-52
2022/01/07 11:01:57;;;;;;;13.23;4.75;;;;;;;10.78;100.00;100835.59;5094969;28;20044;-53
2022/01/07 11:04:31;;;;;;;16.92;6.85;;;;;;;10.78;100.00;100824.03;5086873;28;20048;-53
2022/01/07 11:06:58;;;;;;;15.40;5.53;;;;;;;11.29;100.00;100818.31;5096267;28;20036;-53
2022/01/07 11:09:24;;;;;;;10.43;5.28;;;;;;;12.79;100.00;100809.34;5096325;28;20142;-55
2022/01/07 11:11:49;;;;;;;16.08;4.10;;;;;;;13.22;100.00;100814.13;5094597;28;20075;-53
2022/01/07 11:14:24;;;;;;;6.83;3.93;;;;;;;13.02;100.00;100809.66;5095135;28;20055;-53
2022/01/07 11:16:50;;;;;;;5.37;3.63;;;;;;;14.06;100.00;100818.59;5095185;28;20036;-53
2022/01/07 11:19:22;;;;;;;11.30;4.20;;;;;;;14.25;100.00;100810.56;5095530;28;20249;-54
2022/01/07 11:21:51;;;;;;;9.83;3.70;;;;;;;15.27;100.00;100817.38;5093416;28;20035;-52
2022/01/07 11:24:40;;;;;;;14.67;4.03;;;;;;;15.43;100.00;100824.00;5060273;28;20269;-55
2022/01/07 11:27:13;;;;;;;16.07;4.20;;;;;;;15.30;100.00;100824.16;5081198;28;20277;-52